createdAt,value
2018-05-24T00:00:25.845Z,26.17
2018-05-24T00:02:54.032Z,23.87
2018-05-24T00:05:22.163Z,24.13
2018-05-24T00:07:51.134Z,26.57
2018-05-24T00:10:19.199Z,25.40
2018-05-24T00:12:47.351Z,27.20
2018-05-24T00:15:15.495Z,28.23
2018-05-24T00:17:43.629Z,30.10
2018-05-24T00:20:11.861Z,29.13
2018-05-24T00:22:40.136Z,28.83
2018-05-24T00:25:08.314Z,28.20
2018-05-24T00:27:36.431Z,32.50
2018-05-24T00:30:04.660Z,31.20
2018-05-24T00:32:32.801Z,32.03
2018-05-24T00:35:01.707Z,31.20
2018-05-24T00:37:29.930Z,30.63
2018-05-24T00:39:58.101Z,33.17
2018-05-24T00:42:26.247Z,32.63
2018-05-24T00:44:54.402Z,36.53
2018-05-24T00:47:22.532Z,36.57
2018-05-24T00:49:50.756Z,39.07
2018-05-24T00:52:18.945Z,38.37
2018-05-24T00:54:47.129Z,36.00
2018-05-24T00:57:15.291Z,37.83
2018-05-24T00:59:43.428Z,38.30
2018-05-24T01:02:12.338Z,40.30
2018-05-24T01:04:40.508Z,42.13
2018-05-24T01:07:08.696Z,40.03
2018-05-24T01:09:36.868Z,41.20
2018-05-24T01:12:05.000Z,42.30
2018-05-24T01:14:33.920Z,44.40
2018-05-24T01:17:02.072Z,48.50
2018-05-24T01:19:30.967Z,45.77
2018-05-24T01:21:59.883Z,45.47
2018-05-24T01:24:28.016Z,42.07
2018-05-24T01:26:56.157Z,43.80
2018-05-24T01:29:24.307Z,42.50
2018-05-24T01:31:52.428Z,43.47
2018-05-24T01:34:23.148Z,45.50
2018-05-24T01:37:03.276Z,45.03
2018-05-24T01:39:31.446Z,45.37
2018-05-24T01:41:59.598Z,46.00
2018-05-24T01:44:27.763Z,45.77
2018-05-24T01:46:56.784Z,46.00
2018-05-24T01:49:24.954Z,43.87
2018-05-24T01:51:53.120Z,46.07
2018-05-24T01:54:21.256Z,45.63
2018-05-24T01:56:49.433Z,44.73
2018-05-24T01:59:17.570Z,45.43
2018-05-24T02:01:45.706Z,42.17
2018-05-24T02:04:13.852Z,43.97
2018-05-24T02:06:42.066Z,45.70
2018-05-24T02:09:10.208Z,42.30
2018-05-24T02:11:39.146Z,44.87
2018-05-24T02:14:07.295Z,44.83
2018-05-24T02:16:35.441Z,43.87
2018-05-24T02:19:03.572Z,40.30
2018-05-24T02:21:31.706Z,43.77
2018-05-24T02:24:00.712Z,40.83
2018-05-24T02:26:28.860Z,38.63
2018-05-24T02:28:57.851Z,38.83
2018-05-24T02:31:25.956Z,41.23
2018-05-24T02:33:54.114Z,42.03
2018-05-24T02:36:22.305Z,40.30
2018-05-24T02:38:50.431Z,39.87
2018-05-24T02:41:18.568Z,41.37
2018-05-24T02:43:46.823Z,40.27
2018-05-24T02:46:14.967Z,40.47
2018-05-24T02:48:43.874Z,39.30
2018-05-24T02:51:12.021Z,39.57
2018-05-24T02:53:40.172Z,43.63
2018-05-24T02:56:08.412Z,40.67
2018-05-24T02:58:36.552Z,42.50
2018-05-24T03:01:05.462Z,44.13
2018-05-24T03:03:33.600Z,35.83
2018-05-24T03:06:01.836Z,36.40
2018-05-24T03:08:29.974Z,37.73
2018-05-24T03:10:58.889Z,37.13
2018-05-24T03:13:27.063Z,36.67
2018-05-24T03:15:55.218Z,33.20
2018-05-24T03:18:24.121Z,31.03
2018-05-24T03:20:52.249Z,34.43
2018-05-24T03:23:20.406Z,35.43
2018-05-24T03:25:48.541Z,31.23
2018-05-24T03:28:16.687Z,27.90
2018-05-24T03:30:45.588Z,25.70
2018-05-24T03:33:14.480Z,25.20
2018-05-24T03:35:43.384Z,23.77
2018-05-24T03:38:11.851Z,24.17
2018-05-24T03:40:40.747Z,23.97
2018-05-24T03:43:08.935Z,22.77
2018-05-24T03:45:37.227Z,22.40
2018-05-24T03:48:06.195Z,21.80
2018-05-24T03:50:34.335Z,23.37
2018-05-24T03:53:02.461Z,21.53
2018-05-24T03:55:30.607Z,21.47
2018-05-24T03:57:58.821Z,23.10
2018-05-24T04:00:38.725Z,23.27
2018-05-24T04:03:19.736Z,20.80
2018-05-24T04:05:47.980Z,19.93
2018-05-24T04:08:16.789Z,20.07
2018-05-24T04:10:44.921Z,20.07
2018-05-24T04:13:13.047Z,18.07
2018-05-24T04:15:41.199Z,19.07
2018-05-24T04:18:09.337Z,17.50
2018-05-24T04:20:37.467Z,16.93
2018-05-24T04:23:05.613Z,16.23
2018-05-24T04:25:33.795Z,16.00
2018-05-24T04:28:01.969Z,15.77
2018-05-24T04:30:30.103Z,17.03
2018-05-24T04:32:58.295Z,16.93
2018-05-24T04:35:27.188Z,14.47
2018-05-24T04:37:56.214Z,14.87
2018-05-24T04:40:24.325Z,15.83
2018-05-24T04:42:52.488Z,16.33
2018-05-24T04:45:20.644Z,15.53
2018-05-24T04:47:48.916Z,15.17
2018-05-24T04:50:17.028Z,15.20
2018-05-24T04:52:45.240Z,15.23
2018-05-24T04:55:13.390Z,15.27
2018-05-24T04:57:42.332Z,15.30
2018-05-24T05:00:10.470Z,15.17
2018-05-24T05:02:38.607Z,14.77
2018-05-24T05:05:06.780Z,14.00
2018-05-24T05:07:34.932Z,13.73
2018-05-24T05:10:03.103Z,15.00
2018-05-24T05:12:31.233Z,13.03
2018-05-24T05:15:00.150Z,14.00
2018-05-24T05:17:28.298Z,13.93
2018-05-24T05:19:57.255Z,14.47
2018-05-24T05:22:25.372Z,11.93
2018-05-24T05:24:53.560Z,12.70
2018-05-24T05:27:21.742Z,11.93
2018-05-24T05:29:49.950Z,10.53
2018-05-24T05:32:18.068Z,11.00
2018-05-24T05:34:46.262Z,10.53
2018-05-24T05:37:14.425Z,10.60
2018-05-24T05:39:42.578Z,10.77
2018-05-24T05:42:10.704Z,10.33
2018-05-24T05:44:38.958Z,10.87
2018-05-24T05:47:07.105Z,10.37
2018-05-24T05:49:36.010Z,10.23
2018-05-24T05:52:04.148Z,10.67
2018-05-24T05:54:32.280Z,10.03
2018-05-24T05:57:00.540Z,10.63
2018-05-24T05:59:28.714Z,11.13
2018-05-24T06:01:56.917Z,10.30
2018-05-24T06:04:25.744Z,9.87
2018-05-24T06:06:54.879Z,10.40
2018-05-24T06:09:23.016Z,10.50
2018-05-24T06:11:51.941Z,10.40
2018-05-24T06:14:20.068Z,10.17
2018-05-24T06:16:48.212Z,9.90
2018-05-24T06:19:16.376Z,9.90
2018-05-24T06:21:44.531Z,9.87
2018-05-24T06:24:12.658Z,10.03
2018-05-24T06:26:40.858Z,9.97
2018-05-24T06:29:09.772Z,10.50
2018-05-24T06:31:37.893Z,10.60
2018-05-24T06:34:06.015Z,9.67
2018-05-24T06:36:34.396Z,10.23
2018-05-24T06:39:02.540Z,10.07
2018-05-24T06:41:31.426Z,8.90
2018-05-24T06:44:00.333Z,9.97
2018-05-24T06:46:29.231Z,9.80
2018-05-24T06:48:57.363Z,9.90
2018-05-24T06:51:25.500Z,9.90
2018-05-24T06:53:53.623Z,10.63
2018-05-24T06:56:22.720Z,10.33
2018-05-24T06:58:51.625Z,10.63
2018-05-24T07:01:19.779Z,9.37
2018-05-24T07:03:48.669Z,9.40
2018-05-24T07:06:17.559Z,8.50
2018-05-24T07:08:45.781Z,9.23
2018-05-24T07:11:13.913Z,8.40
2018-05-24T07:13:42.797Z,8.50
2018-05-24T07:16:11.010Z,8.50
2018-05-24T07:18:39.276Z,8.20
2018-05-24T07:21:07.307Z,8.43
2018-05-24T07:23:35.467Z,8.37
2018-05-24T07:26:03.592Z,7.63
2018-05-24T07:28:31.721Z,8.40
2018-05-24T07:31:00.123Z,8.63
2018-05-24T07:33:29.041Z,7.37
2018-05-24T07:35:57.169Z,8.17
2018-05-24T07:38:25.368Z,8.53
2018-05-24T07:40:53.575Z,8.03
2018-05-24T07:43:21.733Z,8.43
2018-05-24T07:45:49.905Z,8.17
2018-05-24T07:48:18.090Z,8.63
2018-05-24T07:50:46.269Z,8.63
2018-05-24T07:53:14.375Z,8.33
2018-05-24T07:55:42.504Z,8.37
2018-05-24T07:58:10.647Z,7.93
2018-05-24T08:00:39.663Z,7.73
2018-05-24T08:03:07.854Z,8.27
2018-05-24T08:05:35.977Z,8.17
2018-05-24T08:08:05.609Z,8.50
2018-05-24T08:10:34.509Z,7.90
2018-05-24T08:13:02.687Z,7.50
2018-05-24T08:15:30.921Z,7.77
2018-05-24T08:17:59.152Z,8.10
2018-05-24T08:20:27.305Z,7.90
2018-05-24T08:22:55.443Z,8.70
2018-05-24T08:25:23.656Z,8.30
2018-05-24T08:27:51.833Z,8.73
2018-05-24T08:30:19.977Z,9.00
2018-05-24T08:32:48.173Z,8.30
2018-05-24T08:35:16.364Z,8.40
2018-05-24T08:37:44.541Z,9.17
2018-05-24T08:40:12.689Z,8.47
2018-05-24T08:42:41.590Z,8.70
2018-05-24T08:45:09.738Z,9.10
2018-05-24T08:47:37.881Z,9.87
2018-05-24T08:50:06.036Z,9.63
2018-05-24T08:52:34.197Z,9.43
2018-05-24T08:55:02.345Z,8.87
2018-05-24T08:57:31.241Z,9.80
2018-05-24T09:00:00.164Z,9.83
2018-05-24T09:02:28.304Z,10.17
2018-05-24T09:04:57.204Z,10.60
2018-05-24T09:07:25.337Z,9.73
2018-05-24T09:09:53.481Z,9.67
2018-05-24T09:12:21.632Z,9.30
2018-05-24T09:14:49.764Z,7.90
2018-05-24T09:17:17.988Z,8.57
2018-05-24T09:19:46.097Z,8.20
2018-05-24T09:22:14.293Z,7.83
2018-05-24T09:24:42.420Z,8.13
2018-05-24T09:27:10.552Z,8.40
2018-05-24T09:29:47.644Z,8.17
2018-05-24T09:32:17.387Z,7.90
2018-05-24T09:34:45.756Z,9.23
2018-05-24T09:37:13.904Z,9.63
2018-05-24T09:39:42.794Z,9.10
2018-05-24T09:42:11.825Z,9.30
2018-05-24T09:44:41.747Z,9.13
2018-05-24T09:47:14.108Z,9.00
2018-05-24T09:49:42.280Z,8.50
2018-05-24T09:52:10.570Z,9.70
2018-05-24T09:54:38.717Z,8.73
2018-05-24T09:57:06.900Z,9.73
2018-05-24T09:59:35.008Z,8.77
2018-05-24T10:02:03.182Z,9.60
2018-05-24T10:04:31.312Z,8.93
2018-05-24T10:06:59.428Z,8.10
2018-05-24T10:09:27.571Z,8.70
2018-05-24T10:11:55.725Z,9.40
2018-05-24T10:14:23.845Z,10.20
2018-05-24T10:16:51.967Z,10.97
2018-05-24T10:19:20.139Z,9.70
2018-05-24T10:21:48.299Z,10.07
2018-05-24T10:24:17.198Z,9.90
2018-05-24T10:26:45.347Z,11.20
2018-05-24T10:29:13.549Z,9.70
2018-05-24T10:31:41.690Z,9.17
2018-05-24T10:34:09.827Z,9.27
2018-05-24T10:36:37.966Z,9.53
2018-05-24T10:39:06.107Z,9.30
2018-05-24T10:41:34.251Z,9.73
2018-05-24T10:44:02.375Z,10.00
2018-05-24T10:46:31.267Z,9.80
2018-05-24T10:49:00.176Z,10.33
2018-05-24T10:51:28.335Z,10.20
2018-05-24T10:53:57.223Z,10.23
2018-05-24T10:56:26.130Z,10.50
2018-05-24T10:58:54.279Z,10.07
2018-05-24T11:01:23.179Z,9.93
2018-05-24T11:03:51.364Z,10.40
2018-05-24T11:06:19.552Z,10.63
2018-05-24T11:08:47.679Z,10.87
2018-05-24T11:11:15.819Z,10.20
2018-05-24T11:13:43.977Z,10.00
2018-05-24T11:16:12.097Z,9.80
2018-05-24T11:18:40.309Z,9.83
2018-05-24T11:21:08.585Z,11.97
2018-05-24T11:23:36.722Z,11.07
2018-05-24T11:26:04.883Z,11.30
2018-05-24T11:28:33.009Z,11.07
2018-05-24T11:31:01.195Z,11.10
2018-05-24T11:33:29.341Z,10.33
2018-05-24T11:35:58.230Z,9.97
2018-05-24T11:38:27.113Z,10.00
2018-05-24T11:40:56.031Z,9.60
2018-05-24T11:43:24.183Z,10.13
2018-05-24T11:45:53.080Z,8.30
2018-05-24T11:48:21.995Z,8.80
2018-05-24T11:50:50.266Z,10.97
2018-05-24T11:53:18.404Z,10.40
2018-05-24T11:55:46.532Z,11.20
2018-05-24T11:58:14.658Z,10.10
2018-05-24T12:00:43.676Z,9.67
2018-05-24T12:03:11.828Z,9.77
2018-05-24T12:05:40.744Z,10.03
2018-05-24T12:08:08.860Z,9.93
2018-05-24T12:10:37.013Z,9.97
2018-05-24T12:13:05.258Z,10.00
2018-05-24T12:15:33.372Z,9.83
2018-05-24T12:18:01.512Z,8.47
2018-05-24T12:20:29.637Z,9.33
2018-05-24T12:22:57.804Z,10.10
2018-05-24T12:25:25.946Z,9.00
2018-05-24T12:27:54.054Z,9.60
2018-05-24T12:30:22.196Z,10.33
2018-05-24T12:32:50.366Z,9.27
2018-05-24T12:35:18.617Z,10.60
2018-05-24T12:37:46.704Z,10.07
2018-05-24T12:40:14.833Z,9.93
2018-05-24T12:42:42.968Z,11.27
2018-05-24T12:45:11.100Z,10.40
2018-05-24T12:47:39.996Z,10.03
2018-05-24T12:50:08.999Z,10.93
2018-05-24T12:52:37.172Z,10.50
2018-05-24T12:55:05.333Z,10.03
2018-05-24T12:57:34.232Z,9.90
2018-05-24T13:00:02.425Z,9.30
2018-05-24T13:02:30.599Z,11.00
2018-05-24T13:04:58.732Z,11.53
2018-05-24T13:07:27.653Z,10.57
2018-05-24T13:09:55.844Z,9.80
2018-05-24T13:12:23.924Z,9.10
2018-05-24T13:14:52.056Z,10.50
2018-05-24T13:17:20.943Z,11.70
2018-05-24T13:19:49.875Z,10.50
2018-05-24T13:22:18.034Z,10.63
2018-05-24T13:24:47.955Z,11.27
2018-05-24T13:27:16.067Z,10.07
2018-05-24T13:29:44.302Z,10.20
2018-05-24T13:32:12.423Z,10.43
2018-05-24T13:34:40.568Z,10.40
2018-05-24T13:37:08.819Z,10.43
2018-05-24T13:39:36.945Z,10.73
2018-05-24T13:42:05.083Z,10.73
2018-05-24T13:44:33.229Z,12.13
2018-05-24T13:47:01.423Z,11.00
2018-05-24T13:49:29.555Z,11.30
2018-05-24T13:51:58.471Z,11.50
2018-05-24T13:54:26.619Z,10.87
2018-05-24T13:56:55.523Z,12.80
2018-05-24T13:59:23.654Z,12.53
2018-05-24T14:01:51.813Z,11.70
2018-05-24T14:04:19.959Z,12.37
2018-05-24T14:06:48.103Z,12.73
2018-05-24T14:09:17.025Z,12.27
2018-05-24T14:11:46.007Z,10.43
2018-05-24T14:14:14.185Z,11.00
2018-05-24T14:16:42.317Z,11.30
2018-05-24T14:19:10.549Z,11.80
2018-05-24T14:21:38.691Z,11.50
2018-05-24T14:24:07.699Z,12.70
2018-05-24T14:26:35.826Z,10.23
2018-05-24T14:29:04.065Z,10.30
2018-05-24T14:31:32.195Z,10.20
2018-05-24T14:34:01.215Z,10.27
2018-05-24T14:36:29.337Z,10.70
2018-05-24T14:38:57.518Z,11.97
2018-05-24T14:41:25.657Z,11.93
2018-05-24T14:43:53.825Z,12.07
2018-05-24T14:46:21.934Z,12.13
2018-05-24T14:48:50.065Z,12.43
2018-05-24T14:51:18.199Z,13.70
2018-05-24T14:53:47.239Z,13.30
2018-05-24T14:56:15.395Z,12.70
2018-05-24T14:58:43.533Z,11.30
2018-05-24T15:01:11.679Z,7.60
2018-05-24T15:03:39.809Z,6.83
2018-05-24T15:06:08.007Z,7.97
2018-05-24T15:08:36.129Z,9.27
2018-05-24T15:11:05.061Z,9.13
2018-05-24T15:13:45.203Z,6.10
2018-05-24T15:16:14.347Z,5.37
2018-05-24T15:18:42.468Z,5.10
2018-05-24T15:21:11.400Z,4.30
2018-05-24T15:23:39.512Z,4.27
2018-05-24T15:26:08.235Z,3.43
2018-05-24T15:28:36.379Z,3.70
2018-05-24T15:31:04.491Z,4.03
2018-05-24T15:33:32.624Z,4.00
2018-05-24T15:36:01.569Z,4.60
2018-05-24T15:38:29.681Z,5.00
2018-05-24T15:40:57.813Z,6.20
2018-05-24T15:43:25.937Z,6.80
2018-05-24T15:45:54.083Z,6.93
2018-05-24T15:48:22.324Z,8.20
2018-05-24T15:50:50.464Z,9.93
2018-05-24T15:53:19.389Z,10.37
2018-05-24T15:55:51.102Z,11.87
2018-05-24T15:58:19.291Z,13.30
2018-05-24T16:00:48.212Z,13.13
2018-05-24T16:03:16.365Z,14.40
2018-05-24T16:05:44.499Z,15.17
2018-05-24T16:08:12.735Z,14.33
2018-05-24T16:10:40.905Z,14.07
2018-05-24T16:13:09.184Z,18.23
2018-05-24T16:15:37.378Z,16.80
2018-05-24T16:18:05.500Z,15.70
2018-05-24T16:20:34.408Z,16.40
2018-05-24T16:23:02.578Z,15.87
2018-05-24T16:25:30.740Z,16.97
2018-05-24T16:27:59.628Z,15.43
2018-05-24T16:30:28.656Z,13.77
2018-05-24T16:32:56.787Z,13.63
2018-05-24T16:35:25.708Z,13.67
2018-05-24T16:37:53.835Z,14.63
2018-05-24T16:40:22.062Z,14.27
2018-05-24T16:42:50.208Z,14.40
2018-05-24T16:45:19.127Z,13.13
2018-05-24T16:47:47.254Z,13.10
2018-05-24T16:50:15.468Z,11.13
2018-05-24T16:52:43.632Z,10.60
2018-05-24T16:55:12.565Z,11.17
2018-05-24T16:57:40.680Z,9.40
2018-05-24T17:00:09.612Z,10.13
2018-05-24T17:02:37.733Z,9.27
2018-05-24T17:05:05.867Z,9.23
2018-05-24T17:07:34.034Z,10.40
2018-05-24T17:10:02.208Z,10.70
2018-05-24T17:12:30.379Z,11.07
2018-05-24T17:14:59.962Z,10.17
2018-05-24T17:17:28.977Z,10.47
2018-05-24T17:19:57.157Z,11.23
2018-05-24T17:22:25.316Z,10.40
2018-05-24T17:24:53.441Z,10.27
2018-05-24T17:27:21.618Z,11.57
2018-05-24T17:29:49.849Z,11.77
2018-05-24T17:32:18.009Z,13.37
2018-05-24T17:34:46.161Z,13.97
2018-05-24T17:37:15.099Z,13.87
2018-05-24T17:39:43.269Z,14.07
2018-05-24T17:42:11.397Z,15.87
2018-05-24T17:44:40.312Z,16.67
2018-05-24T17:47:08.469Z,15.63
2018-05-24T17:49:37.398Z,16.07
2018-05-24T17:52:05.547Z,17.53
2018-05-24T17:54:35.280Z,17.90
2018-05-24T17:57:03.446Z,15.93
2018-05-24T17:59:31.616Z,12.10
2018-05-24T18:01:59.742Z,11.43
2018-05-24T18:04:27.884Z,10.10
2018-05-24T18:06:56.146Z,10.90
2018-05-24T18:09:24.250Z,11.23
2018-05-24T18:11:52.385Z,10.70
2018-05-24T18:14:20.544Z,11.20
2018-05-24T18:16:48.704Z,10.37
2018-05-24T18:19:32.557Z,10.00
2018-05-24T18:22:00.694Z,10.13
2018-05-24T18:24:28.822Z,11.17
2018-05-24T18:26:56.968Z,10.67
2018-05-24T18:29:25.872Z,11.10
2018-05-24T18:31:54.037Z,11.37
2018-05-24T18:34:22.967Z,12.17
2018-05-24T18:36:51.104Z,12.23
2018-05-24T18:39:19.253Z,12.77
2018-05-24T18:41:47.406Z,11.50
2018-05-24T18:44:15.524Z,13.90
2018-05-24T18:46:43.664Z,13.37
2018-05-24T18:49:11.812Z,12.00
2018-05-24T18:51:39.936Z,13.97
2018-05-24T18:54:08.852Z,12.83
2018-05-24T18:56:37.208Z,12.50
2018-05-24T18:59:05.286Z,14.70
2018-05-24T19:01:33.468Z,13.43
2018-05-24T19:04:02.365Z,14.30
2018-05-24T19:06:30.496Z,14.53
2018-05-24T19:09:00.153Z,14.97
2018-05-24T19:11:28.638Z,16.27
2018-05-24T19:13:56.801Z,17.50
2018-05-24T19:16:24.971Z,20.33
2018-05-24T19:18:53.151Z,21.83
2018-05-24T19:21:21.304Z,23.67
2018-05-24T19:23:50.226Z,22.77
2018-05-24T19:26:18.366Z,23.17
2018-05-24T19:28:47.496Z,24.53
2018-05-24T19:31:15.612Z,25.47
2018-05-24T19:33:43.760Z,25.27
2018-05-24T19:36:11.914Z,26.23
2018-05-24T19:38:40.045Z,21.80
2018-05-24T19:41:08.976Z,31.10
2018-05-24T19:43:37.092Z,29.03
2018-05-24T19:46:06.744Z,26.73
2018-05-24T19:48:34.877Z,30.77
2018-05-24T19:51:03.022Z,30.93
2018-05-24T19:53:31.144Z,28.93
2018-05-24T19:56:00.274Z,30.47
2018-05-24T19:58:28.416Z,26.17
2018-05-24T20:00:57.304Z,31.83
2018-05-24T20:03:26.212Z,32.13
2018-05-24T20:05:54.352Z,30.90
2018-05-24T20:08:22.530Z,30.37
2018-05-24T20:10:51.432Z,30.57
2018-05-24T20:13:20.324Z,33.33
2018-05-24T20:15:49.283Z,34.10
2018-05-24T20:18:17.462Z,29.27
2018-05-24T20:20:45.583Z,32.03
2018-05-24T20:23:13.733Z,26.17
2018-05-24T20:25:42.733Z,23.23
2018-05-24T20:28:12.371Z,22.33
2018-05-24T20:30:40.539Z,23.47
2018-05-24T20:33:08.682Z,22.20
2018-05-24T20:35:37.716Z,20.73
2018-05-24T20:38:05.841Z,22.33
2018-05-24T20:40:33.968Z,21.53
2018-05-24T20:43:02.130Z,22.10
2018-05-24T20:45:30.271Z,20.40
2018-05-24T20:47:59.188Z,20.93
2018-05-24T20:50:27.317Z,21.33
2018-05-24T20:52:55.466Z,22.03
2018-05-24T20:55:23.632Z,22.10
2018-05-24T20:57:51.764Z,21.40
2018-05-24T21:00:20.666Z,21.37
2018-05-24T21:02:48.828Z,21.47
2018-05-24T21:05:17.723Z,21.93
2018-05-24T21:07:45.868Z,21.97
2018-05-24T21:10:14.006Z,21.77
2018-05-24T21:12:42.131Z,20.40
2018-05-24T21:15:11.144Z,20.97
2018-05-24T21:17:39.438Z,20.23
2018-05-24T21:20:07.547Z,20.30
2018-05-24T21:22:37.184Z,21.63
2018-05-24T21:25:06.092Z,21.47
2018-05-24T21:27:34.263Z,21.53
2018-05-24T21:30:02.454Z,23.53
2018-05-24T21:32:30.616Z,21.87
2018-05-24T21:34:58.764Z,23.43
2018-05-24T21:37:27.680Z,23.83
2018-05-24T21:39:55.816Z,24.40
2018-05-24T21:42:24.044Z,25.20
2018-05-24T21:44:52.156Z,23.90
2018-05-24T21:47:20.293Z,22.47
2018-05-24T21:49:48.432Z,21.90
2018-05-24T21:52:17.316Z,22.97
2018-05-24T21:54:46.207Z,22.47
2018-05-24T21:57:15.216Z,22.80
2018-05-24T21:59:44.121Z,21.33
2018-05-24T22:02:12.244Z,21.13
2018-05-24T22:04:41.913Z,22.87
2018-05-24T22:07:10.072Z,22.67
2018-05-24T22:09:38.244Z,20.73
2018-05-24T22:12:06.368Z,20.67
2018-05-24T22:14:34.502Z,21.03
2018-05-24T22:17:02.684Z,21.13
2018-05-24T22:19:31.566Z,21.63
2018-05-24T22:21:59.691Z,20.90
2018-05-24T22:24:27.814Z,19.50
2018-05-24T22:26:55.980Z,18.37
2018-05-24T22:29:24.106Z,17.10
2018-05-24T22:31:52.236Z,15.23
2018-05-24T22:34:20.400Z,13.47
2018-05-24T22:36:48.544Z,12.93
2018-05-24T22:39:17.465Z,12.03
2018-05-24T22:41:45.633Z,11.90
2018-05-24T22:44:13.818Z,12.80
2018-05-24T22:46:41.950Z,12.70
2018-05-24T22:49:10.084Z,12.37
2018-05-24T22:51:38.339Z,11.87
2018-05-24T22:54:06.447Z,12.77
2018-05-24T22:56:34.679Z,13.10
2018-05-24T22:59:02.963Z,13.23
2018-05-24T23:01:31.138Z,13.83
2018-05-24T23:03:59.275Z,12.80
2018-05-24T23:06:28.167Z,12.73
2018-05-24T23:08:57.076Z,13.00
2018-05-24T23:11:25.271Z,13.40
2018-05-24T23:13:53.400Z,13.07
2018-05-24T23:16:22.307Z,12.73
2018-05-24T23:18:50.461Z,13.90
2018-05-24T23:21:19.385Z,14.33
2018-05-24T23:23:47.572Z,15.13
2018-05-24T23:26:15.722Z,15.57
2018-05-24T23:28:43.908Z,14.43
2018-05-24T23:31:12.031Z,15.50
2018-05-24T23:33:40.195Z,17.67
2018-05-24T23:36:08.441Z,17.70
2018-05-24T23:38:36.555Z,18.07
2018-05-24T23:41:04.699Z,19.07
2018-05-24T23:43:32.841Z,18.53
2018-05-24T23:46:00.973Z,17.33
2018-05-24T23:48:29.127Z,17.80
2018-05-24T23:50:57.287Z,17.60
2018-05-24T23:53:25.451Z,20.60
2018-05-24T23:55:54.431Z,19.23
2018-05-24T23:58:22.601Z,19.47
